Time;durP1;ratioP1;P1;durP2;ratioP2;P2;SDS_P1;SDS_P2;PMS_P1;PMS_P2;Temp;Humidity;BMP_temperature;BMP_pressure;BME280_temperature;BME280_humidity;BME280_pressure;Samples;Min_cycle;Max_cycle;Signal;HPM_P1;HPM_P2
2022/03/20 00:01:41;;;;;;;5.53;2.28;;;;;;;2.10;50.14;103980.75;5023012;28;20092;-79
2022/03/20 00:04:07;;;;;;;6.78;2.55;;;;;;;2.11;50.09;103979.97;5021883;28;20470;-80
2022/03/20 00:06:32;;;;;;;4.15;2.60;;;;;;;1.83;50.84;103983.84;5045690;28;20080;-77
2022/03/20 00:09:00;;;;;;;4.70;2.85;;;;;;;2.24;49.29;103971.03;5042429;28;20041;-79
2022/03/20 00:11:27;;;;;;;8.68;2.40;;;;;;;2.13;49.64;103967.97;5024523;28;20047;-79
2022/03/20 00:13:54;;;;;;;7.63;2.80;;;;;;;1.91;50.86;103964.44;5019909;28;20048;-79
2022/03/20 00:16:21;;;;;;;5.68;2.40;;;;;;;1.92;50.90;103960.16;5041217;28;20546;-79
2022/03/20 00:18:47;;;;;;;7.55;2.80;;;;;;;2.01;50.82;103962.28;5022271;28;20507;-79
2022/03/20 00:21:12;;;;;;;8.35;2.50;;;;;;;2.01;50.53;103963.16;5040592;28;20040;-79
2022/03/20 00:23:38;;;;;;;9.63;2.38;;;;;;;2.03;50.68;103958.06;5038567;28;20346;-79
2022/03/20 00:26:04;;;;;;;8.45;2.80;;;;;;;1.88;50.96;103953.97;5022420;28;20123;-77
2022/03/20 00:28:30;;;;;;;8.13;3.15;;;;;;;1.73;51.98;103956.75;5022596;28;20590;-78
2022/03/20 00:30:57;;;;;;;8.35;2.60;;;;;;;1.88;51.27;103955.66;5021566;28;20032;-80
2022/03/20 00:33:23;;;;;;;11.00;2.80;;;;;;;1.87;51.12;103949.63;5039106;28;20072;-79
2022/03/20 00:35:49;;;;;;;6.35;3.70;;;;;;;1.86;51.28;103949.56;5038594;28;20108;-81
2022/03/20 00:38:15;;;;;;;7.88;3.10;;;;;;;1.98;50.87;103949.25;5039744;28;20052;-78
2022/03/20 00:40:40;;;;;;;7.65;2.92;;;;;;;1.89;51.10;103948.00;5039276;28;20475;-81
2022/03/20 00:43:08;;;;;;;4.55;2.40;;;;;;;1.96;51.28;103941.44;5021955;28;20045;-80
2022/03/20 00:45:34;;;;;;;3.17;2.72;;;;;;;2.03;50.67;103940.91;5039074;28;20032;-79
2022/03/20 00:48:00;;;;;;;5.35;2.60;;;;;;;1.85;51.39;103940.06;5027197;28;20064;-79
2022/03/20 00:50:26;;;;;;;5.78;2.42;;;;;;;1.83;51.21;103940.00;5042569;28;20071;-80
2022/03/20 00:52:52;;;;;;;11.52;2.60;;;;;;;1.65;51.75;103937.44;5036872;28;20036;-80
2022/03/20 00:55:17;;;;;;;10.10;3.47;;;;;;;1.72;51.27;103939.50;5038985;28;20439;-78
2022/03/20 00:57:42;;;;;;;6.03;2.53;;;;;;;1.74;51.32;103926.69;5037027;28;20057;-79
2022/03/20 01:00:09;;;;;;;6.20;2.50;;;;;;;1.68;51.04;103926.38;5023315;28;20033;-79
2022/03/20 01:02:42;;;;;;;9.75;3.38;;;;;;;1.66;51.49;103923.75;5038666;28;20059;-78
2022/03/20 01:05:08;;;;;;;10.45;3.47;;;;;;;1.79;51.17;103924.31;5043664;28;20029;-79
2022/03/20 01:07:35;;;;;;;8.02;2.72;;;;;;;1.74;50.96;103921.53;5041833;28;20041;-80
2022/03/20 01:10:01;;;;;;;9.30;2.88;;;;;;;1.81;50.89;103920.97;5025470;28;20039;-79
2022/03/20 01:12:28;;;;;;;12.98;3.80;;;;;;;1.66;51.60;103912.53;5037249;28;20496;-81
2022/03/20 01:14:54;;;;;;;7.90;3.00;;;;;;;1.54;51.38;103906.84;5037400;28;20025;-80
2022/03/20 01:17:19;;;;;;;5.57;2.78;;;;;;;1.65;51.32;103900.47;5039023;28;20035;-79
2022/03/20 01:19:44;;;;;;;9.70;4.05;;;;;;;1.70;51.13;103909.28;5037745;28;20560;-80
2022/03/20 01:22:11;;;;;;;8.27;4.47;;;;;;;1.65;51.02;103901.34;5020625;28;20055;-80
2022/03/20 01:24:36;;;;;;;11.25;3.88;;;;;;;1.63;50.91;103896.94;5038006;28;20047;-77
2022/03/20 01:27:02;;;;;;;11.60;4.55;;;;;;;1.63;50.79;103899.53;5020211;28;20036;-78
2022/03/20 01:29:27;;;;;;;8.02;3.88;;;;;;;1.60;50.93;103889.94;5021615;28;20040;-80
2022/03/20 01:31:53;;;;;;;5.25;3.05;;;;;;;1.42;51.34;103887.41;5038542;28;20061;-80
2022/03/20 01:34:18;;;;;;;10.88;3.80;;;;;;;1.37;51.20;103888.84;5021044;28;20452;-79
2022/03/20 01:36:44;;;;;;;9.07;4.80;;;;;;;1.24;51.23;103891.69;5040531;28;20110;-79
2022/03/20 01:39:09;;;;;;;7.63;4.35;;;;;;;1.43;50.76;103878.84;5023504;28;20041;-80
2022/03/20 01:41:35;;;;;;;16.95;5.32;;;;;;;1.73;49.75;103879.38;5022729;28;20078;-79
2022/03/20 01:44:02;;;;;;;12.88;4.05;;;;;;;1.50;50.36;103875.75;5035702;28;20076;-80
2022/03/20 01:46:31;;;;;;;10.95;4.25;;;;;;;1.50;50.36;103860.28;5026858;28;20040;-78
2022/03/20 01:48:56;;;;;;;10.02;4.70;;;;;;;1.32;50.99;103870.56;5018875;28;20052;-79
2022/03/20 01:54:07;;;;;;;9.30;4.13;;;;;;;1.22;50.91;103855.53;5021814;28;20463;-79
2022/03/20 01:56:33;;;;;;;11.75;5.45;;;;;;;1.12;51.17;103845.56;5036245;28;20402;-80
2022/03/20 01:59:03;;;;;;;9.48;5.28;;;;;;;1.04;51.31;103847.81;5019516;28;20405;-78
2022/03/20 02:01:30;;;;;;;10.00;4.07;;;;;;;1.07;51.25;103847.94;5021280;28;20033;-79
2022/03/20 02:03:55;;;;;;;8.77;4.68;;;;;;;0.96;51.25;103843.09;5035383;28;20430;-79
2022/03/20 02:06:22;;;;;;;8.88;4.82;;;;;;;0.94;51.34;103840.44;5023939;28;20025;-81
2022/03/20 02:08:47;;;;;;;8.05;4.93;;;;;;;1.05;50.79;103839.25;5027440;28;20489;-81
2022/03/20 02:11:13;;;;;;;11.40;5.55;;;;;;;0.93;51.20;103837.81;5022195;28;20025;-79
2022/03/20 02:13:39;;;;;;;11.20;5.35;;;;;;;0.88;51.04;103829.84;5036805;28;20531;-77
2022/03/20 02:16:05;;;;;;;12.32;5.68;;;;;;;1.08;50.45;103834.25;5020397;28;20316;-79
2022/03/20 02:18:31;;;;;;;11.13;5.68;;;;;;;1.10;50.43;103822.34;5023959;28;20497;-77
2022/03/20 02:21:01;;;;;;;10.55;5.82;;;;;;;1.14;50.09;103835.34;5020711;28;20612;-79
2022/03/20 02:23:26;;;;;;;13.05;5.93;;;;;;;1.27;49.85;103829.97;5037847;28;20354;-79
2022/03/20 02:25:52;;;;;;;9.68;6.22;;;;;;;1.16;49.93;103829.47;5019482;28;20029;-79
2022/03/20 02:28:18;;;;;;;14.15;5.93;;;;;;;1.18;49.54;103822.69;5005713;28;20084;-79
2022/03/20 02:30:46;;;;;;;10.23;5.40;;;;;;;1.37;49.14;103810.63;5002509;28;20410;-78
2022/03/20 02:33:12;;;;;;;16.63;6.32;;;;;;;1.20;49.77;103822.78;5020494;28;20040;-80
2022/03/20 02:35:39;;;;;;;13.73;6.82;;;;;;;1.30;49.28;103812.06;5040350;28;20037;-79
2022/03/20 02:38:04;;;;;;;15.68;6.55;;;;;;;1.07;49.88;103808.44;5035875;28;20334;-78
2022/03/20 02:40:30;;;;;;;10.45;5.95;;;;;;;1.32;48.72;103805.28;5036767;28;20040;-79
2022/03/20 02:42:56;;;;;;;13.73;5.95;;;;;;;1.26;49.11;103797.25;5041793;28;20037;-80
2022/03/20 02:45:30;;;;;;;13.77;7.38;;;;;;;0.95;49.88;103790.72;5036745;28;20078;-78
2022/03/20 02:47:57;;;;;;;16.35;6.85;;;;;;;1.08;49.45;103795.63;5022058;28;20132;-81
2022/03/20 02:50:25;;;;;;;16.48;6.60;;;;;;;0.99;49.55;103787.47;5036278;28;20040;-78
2022/03/20 02:52:54;;;;;;;13.80;6.47;;;;;;;1.01;49.65;103780.66;5016609;28;20041;-79
2022/03/20 02:55:19;;;;;;;21.50;7.45;;;;;;;0.99;49.46;103782.31;5019162;28;20130;-79
2022/03/20 02:57:47;;;;;;;12.77;6.13;;;;;;;0.99;49.62;103776.25;5037228;28;20484;-79
2022/03/20 03:00:14;;;;;;;14.30;7.43;;;;;;;1.04;49.16;103764.50;5036615;28;20119;-80
2022/03/20 03:02:44;;;;;;;13.20;6.63;;;;;;;0.91;49.24;103773.34;5034587;28;20049;-79
2022/03/20 03:05:14;;;;;;;12.63;7.75;;;;;;;0.77;49.64;103776.94;5019875;28;20029;-80
2022/03/20 03:13:12;;;;;;;15.85;7.97;;;;;;;0.96;48.81;103766.72;5043727;28;20044;-79
2022/03/20 03:15:38;;;;;;;17.00;7.47;;;;;;;0.88;48.91;103763.78;5026294;28;20033;-77
2022/03/20 03:18:04;;;;;;;11.18;7.70;;;;;;;0.98;48.63;103765.09;5040170;28;20457;-80
2022/03/20 03:20:30;;;;;;;19.23;8.75;;;;;;;0.68;49.28;103755.13;5039218;28;20633;-79
2022/03/20 03:22:56;;;;;;;16.33;9.13;;;;;;;0.81;48.69;103766.00;5038477;28;20319;-79
2022/03/20 03:25:23;;;;;;;17.55;8.35;;;;;;;0.95;48.36;103753.75;5027574;28;20604;-80
2022/03/20 03:27:48;;;;;;;16.75;8.30;;;;;;;1.00;48.38;103755.75;5037591;28;20053;-79
2022/03/20 03:30:15;;;;;;;17.23;8.27;;;;;;;0.99;48.17;103748.84;5041660;28;20410;-79
2022/03/20 03:32:41;;;;;;;22.55;9.07;;;;;;;0.93;48.16;103743.41;5041922;28;20080;-79
2022/03/20 03:37:52;;;;;;;18.08;7.78;;;;;;;0.66;48.84;103750.72;5022331;28;20529;-79
2022/03/20 03:40:17;;;;;;;15.85;7.85;;;;;;;0.80;48.48;103743.63;5040377;28;20127;-78
2022/03/20 03:42:43;;;;;;;20.52;9.10;;;;;;;0.91;47.96;103737.28;5020435;28;20084;-79
2022/03/20 03:45:08;;;;;;;16.95;8.45;;;;;;;0.62;48.62;103729.09;5041073;28;20028;-79
2022/03/20 03:47:34;;;;;;;16.27;8.32;;;;;;;0.67;48.61;103731.88;5022887;28;20533;-79
2022/03/20 03:50:00;;;;;;;21.00;8.57;;;;;;;0.67;48.67;103712.16;5023661;28;20111;-79
2022/03/20 03:52:26;;;;;;;15.15;8.07;;;;;;;0.73;48.09;103721.00;5022042;28;20110;-78
2022/03/20 03:54:52;;;;;;;17.88;8.55;;;;;;;0.86;47.93;103707.88;5026939;28;20056;-79
2022/03/20 03:57:20;;;;;;;18.77;8.57;;;;;;;0.67;48.39;103716.44;5041220;28;20036;-78
2022/03/20 03:59:46;;;;;;;18.63;8.57;;;;;;;1.06;47.35;103704.50;5036457;28;20040;-79
2022/03/20 04:02:12;;;;;;;20.83;8.73;;;;;;;0.80;48.47;103703.31;5038653;28;20029;-79
2022/03/20 04:04:38;;;;;;;21.20;8.60;;;;;;;0.87;48.23;103705.34;5011821;28;20037;-78
2022/03/20 04:07:05;;;;;;;18.27;8.50;;;;;;;0.35;49.97;103702.03;5042112;28;20674;-81
2022/03/20 04:09:31;;;;;;;16.80;8.50;;;;;;;0.64;49.35;103701.72;5044933;28;20056;-79
2022/03/20 04:11:57;;;;;;;17.90;8.38;;;;;;;0.66;49.39;103705.25;5023913;28;20478;-79
2022/03/20 04:14:24;;;;;;;23.80;9.13;;;;;;;0.69;48.95;103695.09;5038645;28;20462;-78
2022/03/20 04:16:50;;;;;;;14.95;9.18;;;;;;;0.61;49.66;103692.97;5022295;28;20051;-79
2022/03/20 04:19:16;;;;;;;16.70;8.70;;;;;;;0.43;50.09;103685.25;5038508;28;20483;-80
2022/03/20 04:21:42;;;;;;;19.33;8.15;;;;;;;0.61;49.65;103678.44;5041775;28;20045;-79
2022/03/20 04:24:07;;;;;;;19.13;8.40;;;;;;;0.54;49.88;103678.06;5038615;28;20136;-78
2022/03/20 04:26:34;;;;;;;18.48;9.55;;;;;;;0.54;50.00;103675.47;5043412;28;20113;-79
2022/03/20 04:29:00;;;;;;;22.83;11.52;;;;;;;0.52;49.90;103677.97;5021427;28;20084;-79
2022/03/20 04:31:25;;;;;;;16.88;8.77;;;;;;;0.54;50.19;103680.63;5043458;28;20036;-79
2022/03/20 04:33:54;;;;;;;20.20;9.23;;;;;;;0.61;49.67;103680.09;5037609;28;20048;-78
2022/03/20 04:36:22;;;;;;;17.90;9.50;;;;;;;0.63;49.74;103679.34;5022331;28;20380;-80
2022/03/20 04:38:49;;;;;;;20.45;8.80;;;;;;;0.55;49.82;103680.72;5037893;28;20055;-79
2022/03/20 04:41:15;;;;;;;19.30;9.07;;;;;;;0.44;49.89;103676.75;5023965;28;20151;-79
2022/03/20 04:43:40;;;;;;;16.55;8.85;;;;;;;0.41;49.89;103671.44;5040981;28;20504;-79
2022/03/20 04:46:06;;;;;;;19.05;9.55;;;;;;;0.43;50.23;103680.13;5023999;28;20029;-81
2022/03/20 04:59:28;;;;;;;18.98;9.10;;;;;;;0.30;50.57;103670.97;5043100;28;20554;-78
2022/03/20 05:01:53;;;;;;;24.05;9.77;;;;;;;0.36;50.05;103676.38;5026742;28;20048;-79
2022/03/20 05:04:19;;;;;;;27.35;9.60;;;;;;;0.31;50.27;103672.72;5021034;28;20456;-80
2022/03/20 05:06:45;;;;;;;17.25;9.07;;;;;;;0.22;50.54;103669.69;5016605;28;20037;-79
2022/03/20 05:14:40;;;;;;;19.85;9.75;;;;;;;0.32;50.17;103668.44;5043257;28;20207;-80
2022/03/20 05:17:07;;;;;;;18.35;8.27;;;;;;;0.23;50.41;103671.44;5022541;28;20917;-79
2022/03/20 05:19:37;;;;;;;20.30;9.52;;;;;;;0.17;50.47;103666.03;5038486;28;20429;-79
2022/03/20 05:22:04;;;;;;;15.80;8.68;;;;;;;0.08;50.79;103661.31;5021949;28;20032;-79
2022/03/20 05:24:30;;;;;;;16.92;9.50;;;;;;;0.06;50.80;103652.66;5017047;28;20021;-79
2022/03/20 05:26:56;;;;;;;21.20;9.27;;;;;;;-0.03;50.87;103652.22;5020890;28;20517;-79
2022/03/20 05:29:22;;;;;;;20.00;10.90;;;;;;;-0.05;51.26;103653.81;5041448;28;20123;-76
2022/03/20 05:31:49;;;;;;;23.48;9.32;;;;;;;0.02;50.81;103646.47;5037471;28;20499;-80
2022/03/20 05:34:16;;;;;;;21.67;9.75;;;;;;;0.14;50.34;103646.16;5021762;28;20075;-78
2022/03/20 05:36:42;;;;;;;19.35;9.90;;;;;;;-0.13;51.05;103636.31;5041460;28;20037;-79
2022/03/20 05:39:08;;;;;;;21.40;9.82;;;;;;;0.06;50.54;103645.81;5041957;28;20033;-79
2022/03/20 05:41:50;;;;;;;19.92;9.57;;;;;;;0.20;50.38;103641.31;5041704;28;20037;-79
2022/03/20 05:44:21;;;;;;;17.50;7.90;;;;;;;0.13;50.34;103648.69;4999660;28;20044;-79
2022/03/20 05:46:49;;;;;;;16.02;9.50;;;;;;;-0.07;50.79;103645.16;5004748;28;20187;-80
2022/03/20 05:49:22;;;;;;;17.88;9.48;;;;;;;0.10;50.27;103649.41;5038310;28;20040;-79
2022/03/20 05:51:49;;;;;;;19.77;9.32;;;;;;;0.10;50.45;103643.38;5021302;28;20075;-78
2022/03/20 05:54:15;;;;;;;21.80;9.65;;;;;;;-0.06;50.99;103646.91;5038084;28;20111;-79
2022/03/20 05:59:29;;;;;;;26.88;10.15;;;;;;;-0.12;50.98;103637.22;5038592;28;20044;-79
2022/03/20 06:01:54;;;;;;;16.77;9.55;;;;;;;-0.23;51.57;103628.97;5037733;28;20063;-81
2022/03/20 06:04:21;;;;;;;19.10;9.65;;;;;;;0.10;50.63;103634.00;5020335;28;20525;-79
2022/03/20 06:06:50;;;;;;;19.23;9.93;;;;;;;0.17;50.34;103630.91;5019998;28;20029;-80
2022/03/20 06:09:16;;;;;;;20.48;9.52;;;;;;;0.30;49.98;103627.22;5021582;28;20052;-81
2022/03/20 06:11:42;;;;;;;16.75;9.15;;;;;;;0.04;50.27;103626.84;5041516;28;20047;-79
2022/03/20 06:14:08;;;;;;;20.48;9.73;;;;;;;0.23;49.97;103625.13;5014177;28;20110;-79
2022/03/20 06:16:37;;;;;;;20.65;9.30;;;;;;;0.17;49.98;103630.91;5021367;28;20117;-80
2022/03/20 06:19:07;;;;;;;22.75;9.20;;;;;;;0.21;49.71;103614.81;5036746;28;20450;-79
2022/03/20 06:21:33;;;;;;;20.52;10.38;;;;;;;0.66;49.01;103616.84;5004021;28;20120;-79
2022/03/20 06:23:59;;;;;;;20.10;9.90;;;;;;;2.17;45.53;103616.34;5034677;28;20343;-80
2022/03/20 06:26:24;;;;;;;22.17;9.73;;;;;;;3.58;41.93;103615.44;5024035;28;20040;-79
2022/03/20 06:28:53;;;;;;;17.40;8.98;;;;;;;4.24;39.35;103607.19;5020957;28;21164;-77
2022/03/20 06:31:20;;;;;;;21.40;10.57;;;;;;;4.58;38.67;103609.03;5026387;28;20033;-80
2022/03/20 06:33:46;;;;;;;17.42;9.15;;;;;;;5.17;37.31;103615.91;5036110;28;20584;-79
2022/03/20 06:36:13;;;;;;;18.73;10.27;;;;;;;5.59;36.40;103610.03;5018749;28;20090;-79
2022/03/20 06:38:39;;;;;;;13.43;8.43;;;;;;;6.11;35.32;103600.91;5037237;28;20146;-80
2022/03/20 06:41:07;;;;;;;16.45;9.20;;;;;;;6.20;34.96;103601.09;5003710;28;20037;-79
2022/03/20 06:43:39;;;;;;;16.33;9.23;;;;;;;7.25;33.27;103598.84;5002366;28;20392;-78
2022/03/20 06:46:06;;;;;;;17.58;9.18;;;;;;;7.68;31.51;103591.78;5022169;28;20087;-80
2022/03/20 06:48:32;;;;;;;12.75;8.98;;;;;;;6.88;32.29;103592.97;5037106;28;20495;-78
2022/03/20 06:50:58;;;;;;;21.33;9.98;;;;;;;7.46;32.09;103589.66;5019797;28;20044;-80
2022/03/20 06:53:24;;;;;;;14.73;9.13;;;;;;;7.57;31.54;103593.34;5020158;28;20037;-77
2022/03/20 06:55:49;;;;;;;20.92;9.07;;;;;;;7.93;31.20;103581.75;5023216;28;20044;-80
2022/03/20 06:58:17;;;;;;;14.48;9.05;;;;;;;8.04;31.18;103566.25;5020280;28;20051;-79
2022/03/20 07:00:43;;;;;;;15.38;9.05;;;;;;;8.34;29.96;103560.59;5014065;28;20115;-78
2022/03/20 07:03:09;;;;;;;18.20;9.65;;;;;;;8.02;30.40;103547.13;5041611;28;20116;-81
2022/03/20 07:05:35;;;;;;;16.67;8.80;;;;;;;7.65;30.32;103537.09;5024334;28;20036;-79
2022/03/20 07:08:02;;;;;;;16.40;9.63;;;;;;;7.92;30.49;103536.59;5036772;28;20113;-78
2022/03/20 07:10:28;;;;;;;16.73;9.20;;;;;;;8.10;29.87;103541.16;5035800;28;20084;-79
2022/03/20 07:15:39;;;;;;;17.35;9.27;;;;;;;8.80;28.82;103531.56;5039666;28;20033;-79
2022/03/20 07:18:05;;;;;;;15.27;9.10;;;;;;;9.24;27.86;103542.41;5036441;28;20072;-79
2022/03/20 07:20:31;;;;;;;18.45;9.02;;;;;;;9.40;27.66;103539.03;5040397;28;20181;-77
2022/03/20 07:23:00;;;;;;;15.82;8.07;;;;;;;9.88;26.73;103555.09;5015767;28;20700;-79
2022/03/20 07:30:56;;;;;;;17.48;9.35;;;;;;;8.74;28.32;103550.66;5039393;28;20074;-79
2022/03/20 07:33:23;;;;;;;18.45;10.10;;;;;;;9.32;27.67;103545.06;5036687;28;20040;-78
2022/03/20 07:35:53;;;;;;;16.30;9.50;;;;;;;9.63;26.74;103540.06;5035864;28;20029;-78
2022/03/20 07:38:18;;;;;;;17.00;9.32;;;;;;;9.67;26.91;103536.63;5038160;28;20045;-80
2022/03/20 07:40:44;;;;;;;22.27;9.52;;;;;;;9.37;26.92;103532.94;5041125;28;20370;-79
2022/03/20 07:43:09;;;;;;;14.68;9.45;;;;;;;8.71;26.90;103519.31;5020863;28;20541;-81
2022/03/20 07:45:35;;;;;;;14.88;9.02;;;;;;;8.58;27.16;103523.47;5024599;28;20090;-80
2022/03/20 07:48:02;;;;;;;14.90;8.95;;;;;;;8.39;27.49;103516.34;5035767;28;20041;-78
2022/03/20 07:50:28;;;;;;;20.88;10.23;;;;;;;9.49;26.24;103517.34;5020661;28;20475;-79
2022/03/20 07:52:56;;;;;;;14.52;8.85;;;;;;;9.76;26.11;103516.66;5036437;28;20344;-80
2022/03/20 07:55:23;;;;;;;14.55;9.18;;;;;;;9.58;25.92;103506.09;5023167;28;20029;-80
2022/03/20 07:57:49;;;;;;;22.15;9.45;;;;;;;9.62;25.63;103505.25;5023089;28;20130;-81
2022/03/20 08:00:15;;;;;;;20.27;10.10;;;;;;;10.11;25.59;103489.00;5022976;28;20601;-80
2022/03/20 08:02:41;;;;;;;13.88;9.55;;;;;;;9.94;24.99;103488.91;5022355;28;20170;-79
2022/03/20 08:05:07;;;;;;;14.93;9.70;;;;;;;10.52;24.77;103488.22;5030550;28;20033;-79
2022/03/20 08:07:37;;;;;;;17.23;9.38;;;;;;;11.10;23.67;103487.41;5021853;28;20046;-81
2022/03/20 08:10:07;;;;;;;19.95;10.65;;;;;;;11.33;23.66;103483.03;5047863;28;20036;-78
2022/03/20 08:12:34;;;;;;;19.13;9.35;;;;;;;11.00;23.42;103490.03;5023599;28;20057;-78
2022/03/20 08:15:00;;;;;;;19.98;10.02;;;;;;;10.75;23.53;103490.84;5022672;28;20033;-82
2022/03/20 08:17:25;;;;;;;18.80;10.05;;;;;;;9.19;25.09;103477.13;5004609;28;20078;-78
2022/03/20 08:19:51;;;;;;;16.80;10.43;;;;;;;8.83;25.80;103477.72;5022057;28;20055;-82
2022/03/20 08:22:16;;;;;;;16.80;10.10;;;;;;;9.56;25.42;103476.50;5040516;28;20132;-79
2022/03/20 08:24:46;;;;;;;20.40;9.68;;;;;;;9.03;26.01;103463.94;5026217;28;20128;-80
2022/03/20 08:27:12;;;;;;;15.00;8.80;;;;;;;9.42;25.56;103454.66;5013369;28;20663;-79
2022/03/20 08:29:37;;;;;;;16.52;9.48;;;;;;;9.78;25.27;103453.97;5037555;28;20053;-78
2022/03/20 08:32:03;;;;;;;18.95;9.93;;;;;;;9.95;25.29;103446.25;5038304;28;20040;-78
2022/03/20 08:34:29;;;;;;;16.92;9.32;;;;;;;10.20;24.60;103435.00;5037473;28;20052;-80
2022/03/20 08:36:55;;;;;;;17.33;9.77;;;;;;;10.50;23.79;103432.44;5039501;28;20058;-80
2022/03/20 08:39:21;;;;;;;16.75;8.95;;;;;;;10.81;23.23;103431.59;5036344;28;20068;-79
2022/03/20 08:41:47;;;;;;;17.85;9.75;;;;;;;10.39;23.35;103433.31;5038192;28;20128;-77
2022/03/20 08:44:14;;;;;;;18.75;10.27;;;;;;;9.67;24.40;103435.63;5037428;28;20706;-80
2022/03/20 08:46:39;;;;;;;19.98;9.35;;;;;;;9.10;25.34;103440.53;5022208;28;20033;-82
2022/03/20 08:49:09;;;;;;;18.55;10.18;;;;;;;9.02;25.42;103426.56;5043070;28;20091;-80
2022/03/20 08:51:35;;;;;;;17.40;10.45;;;;;;;8.04;26.72;103426.47;5029845;28;20135;-78
2022/03/20 08:54:02;;;;;;;15.18;9.20;;;;;;;7.44;27.36;103419.63;5022989;28;20041;-78
2022/03/20 08:56:28;;;;;;;14.95;8.57;;;;;;;7.55;27.50;103404.19;5005241;28;20083;-79
2022/03/20 08:58:54;;;;;;;22.27;9.45;;;;;;;7.78;27.49;103407.97;5018871;28;20044;-78
2022/03/20 09:01:21;;;;;;;23.98;10.55;;;;;;;8.28;27.68;103412.84;5038073;28;20036;-78
2022/03/20 09:03:49;;;;;;;16.95;10.65;;;;;;;7.99;27.15;103406.47;5054570;28;20037;-78
2022/03/20 09:06:20;;;;;;;18.73;10.45;;;;;;;6.53;29.37;103410.41;5061505;28;20035;-78
2022/03/20 09:08:46;;;;;;;21.83;11.27;;;;;;;6.57;29.39;103386.19;5043327;28;20055;-79
2022/03/20 09:11:12;;;;;;;20.48;10.60;;;;;;;6.97;29.27;103398.97;5038066;28;20032;-79
2022/03/20 09:13:37;;;;;;;18.67;10.23;;;;;;;6.27;30.42;103400.38;5036559;28;20533;-78
2022/03/20 09:18:59;;;;;;;20.13;9.88;;;;;;;7.30;28.59;103378.66;5039132;28;20045;-79
2022/03/20 09:21:29;;;;;;;19.63;9.50;;;;;;;6.13;29.58;103391.47;5040593;28;20033;-80
2022/03/20 09:23:55;;;;;;;23.40;11.18;;;;;;;5.99;30.22;103383.38;5020347;28;20874;-82
2022/03/20 09:26:20;;;;;;;21.90;10.70;;;;;;;6.70;30.11;103366.50;5028277;28;20029;-79
2022/03/20 09:28:47;;;;;;;19.80;10.88;;;;;;;6.71;28.90;103365.66;5027700;28;20139;-79
2022/03/20 09:31:14;;;;;;;19.85;11.48;;;;;;;6.24;30.07;103358.78;5024402;28;20652;-78
2022/03/20 09:33:40;;;;;;;22.40;10.65;;;;;;;6.20;29.91;103340.53;5042019;28;20059;-79
2022/03/20 09:36:06;;;;;;;20.15;10.00;;;;;;;6.99;29.90;103327.06;5025176;28;20128;-78
2022/03/20 09:38:33;;;;;;;21.73;10.68;;;;;;;5.93;30.49;103326.19;5040268;28;20036;-79
2022/03/20 09:41:03;;;;;;;25.30;11.10;;;;;;;7.40;29.13;103316.34;5022219;28;20033;-80
2022/03/20 09:43:31;;;;;;;22.67;11.55;;;;;;;7.26;29.11;103314.44;5042651;28;20060;-80
2022/03/20 09:45:56;;;;;;;18.40;10.43;;;;;;;7.64;28.42;103314.06;5023211;28;20474;-79
2022/03/20 09:48:22;;;;;;;21.67;11.07;;;;;;;6.99;28.94;103304.53;5018806;28;20064;-79
2022/03/20 09:50:49;;;;;;;22.08;11.60;;;;;;;7.18;28.59;103295.28;5038358;28;20064;-80
2022/03/20 09:53:14;;;;;;;21.40;11.70;;;;;;;7.46;28.13;103287.81;5020958;28;20057;-79
2022/03/20 09:55:40;;;;;;;28.48;10.52;;;;;;;7.19;28.36;103285.75;5038832;28;20028;-79
2022/03/20 09:58:05;;;;;;;17.42;10.00;;;;;;;7.41;28.45;103281.69;5038432;28;20045;-79
2022/03/20 10:00:32;;;;;;;18.67;10.40;;;;;;;7.45;28.66;103273.06;5038939;28;20438;-78
2022/03/20 10:02:57;;;;;;;24.45;10.50;;;;;;;7.02;28.16;103281.22;5021621;28;20053;-80
2022/03/20 10:05:28;;;;;;;21.45;11.40;;;;;;;6.67;28.89;103265.97;5024787;28;20130;-78
2022/03/20 10:08:07;;;;;;;18.88;11.23;;;;;;;6.80;29.00;103271.38;4998326;28;20107;-81
2022/03/20 10:10:33;;;;;;;18.17;10.90;;;;;;;7.21;28.48;103271.91;5020283;28;20033;-81
2022/03/20 10:13:00;;;;;;;19.48;10.82;;;;;;;7.63;27.97;103273.28;5033362;28;20356;-79
2022/03/20 10:15:33;;;;;;;19.67;11.00;;;;;;;7.33;28.07;103253.84;5039984;28;20102;-79
2022/03/20 10:18:09;;;;;;;17.60;9.75;;;;;;;7.81;27.62;103243.09;5039193;28;20053;-80
2022/03/20 10:20:41;;;;;;;19.77;11.20;;;;;;;8.04;26.94;103243.28;5035586;28;20411;-80
2022/03/20 10:23:28;;;;;;;21.88;12.10;;;;;;;7.72;26.50;103229.13;5001621;28;20558;-80
2022/03/20 10:25:54;;;;;;;19.50;10.38;;;;;;;7.58;26.68;103232.44;5032136;28;20033;-79
2022/03/20 10:28:20;;;;;;;24.05;8.95;;;;;;;7.29;27.00;103220.84;5040877;28;20051;-80
2022/03/20 10:30:59;;;;;;;20.75;10.52;;;;;;;7.58;27.17;103222.03;5017664;28;20036;-80
2022/03/20 10:33:25;;;;;;;19.83;10.45;;;;;;;7.96;26.39;103230.22;5034710;28;20120;-80
2022/03/20 10:36:15;;;;;;;22.42;12.30;;;;;;;7.51;26.79;103211.53;5032788;28;20048;-80
2022/03/20 10:38:43;;;;;;;17.48;9.88;;;;;;;7.98;25.77;103197.25;5024247;28;20052;-80
2022/03/20 10:41:34;;;;;;;20.52;10.60;;;;;;;8.12;24.67;103192.16;5019625;28;20239;-80
2022/03/20 10:44:01;;;;;;;21.33;12.05;;;;;;;7.97;26.13;103179.88;5033740;28;20171;-80
2022/03/20 10:46:29;;;;;;;19.20;10.88;;;;;;;7.53;25.80;103189.00;5034381;28;20357;-79
2022/03/20 10:49:03;;;;;;;22.25;11.50;;;;;;;7.38;25.54;103182.75;5033564;28;20132;-80
2022/03/20 10:51:37;;;;;;;21.83;11.23;;;;;;;7.68;25.53;103171.81;5038180;28;20033;-80
2022/03/20 10:54:05;;;;;;;21.52;11.40;;;;;;;7.95;24.97;103171.16;5035184;28;20037;-78
2022/03/20 10:56:31;;;;;;;17.00;10.40;;;;;;;7.44;25.20;103172.41;5032918;28;20079;-77
2022/03/20 10:58:57;;;;;;;19.13;11.07;;;;;;;7.83;25.03;103161.53;5014308;28;20620;-81
2022/03/20 11:01:36;;;;;;;20.25;10.73;;;;;;;8.61;24.51;103163.78;5035080;28;20186;-81
2022/03/20 11:04:04;;;;;;;20.98;10.10;;;;;;;8.68;24.62;103169.91;5034101;28;20114;-77
2022/03/20 11:06:29;;;;;;;20.90;10.27;;;;;;;8.96;23.47;103165.66;5016810;28;20059;-79
2022/03/20 11:08:56;;;;;;;21.15;10.65;;;;;;;8.73;24.07;103189.06;5037511;28;20037;-80
2022/03/20 11:11:24;;;;;;;20.08;10.73;;;;;;;8.95;23.88;103170.03;5026391;28;20043;-80
2022/03/20 11:13:52;;;;;;;17.80;9.57;;;;;;;8.79;23.86;103157.81;5033524;28;20092;-79
2022/03/20 11:16:23;;;;;;;20.25;10.60;;;;;;;8.33;24.61;103160.13;5026208;28;20009;-77
2022/03/20 11:18:52;;;;;;;16.08;10.35;;;;;;;8.88;24.19;103162.19;5043935;28;20049;-78
2022/03/20 11:21:22;;;;;;;19.50;9.43;;;;;;;8.20;23.98;103145.28;5033688;28;20574;-81
2022/03/20 11:23:49;;;;;;;16.25;9.93;;;;;;;8.40;24.19;103140.19;5023385;28;20049;-81
2022/03/20 11:26:16;;;;;;;19.30;9.60;;;;;;;9.39;23.47;103134.47;5035428;28;20414;-81
2022/03/20 11:28:45;;;;;;;21.02;10.32;;;;;;;8.63;23.70;103141.19;5020135;28;20091;-80
2022/03/20 11:31:13;;;;;;;20.50;10.63;;;;;;;8.78;24.14;103127.38;5036757;28;20056;-80
2022/03/20 11:33:42;;;;;;;20.42;10.52;;;;;;;8.99;23.92;103123.97;5035193;28;20465;-78
2022/03/20 11:36:08;;;;;;;17.80;10.73;;;;;;;9.58;23.59;103120.53;5021385;28;20040;-80
2022/03/20 11:38:35;;;;;;;18.25;10.52;;;;;;;9.40;23.11;103116.19;5038616;28;20047;-82
2022/03/20 11:41:09;;;;;;;21.80;10.80;;;;;;;9.07;24.24;103110.94;5021547;28;20037;-78
2022/03/20 11:43:37;;;;;;;23.90;10.73;;;;;;;9.67;24.03;103101.41;5040089;28;20270;-78
2022/03/20 11:46:29;;;;;;;20.83;10.40;;;;;;;9.47;23.64;103101.41;5023027;28;20430;-79
2022/03/20 11:49:12;;;;;;;17.60;10.38;;;;;;;9.91;22.30;103107.50;5037560;28;20075;-81
2022/03/20 11:52:01;;;;;;;18.15;9.73;;;;;;;9.95;22.41;103067.44;5039369;28;20037;-80
2022/03/20 11:54:51;;;;;;;18.60;10.23;;;;;;;9.41;22.10;103101.41;5042196;28;20033;-80
2022/03/20 11:57:37;;;;;;;17.75;10.00;;;;;;;10.32;22.53;103088.22;5021378;28;20041;-81
2022/03/20 12:00:12;;;;;;;19.85;11.23;;;;;;;9.79;22.51;103088.38;5022662;28;20079;-78
2022/03/20 12:02:40;;;;;;;19.45;9.20;;;;;;;9.67;21.58;103090.09;5042949;28;20040;-80
2022/03/20 12:05:43;;;;;;;21.75;10.02;;;;;;;10.39;21.30;103074.25;5045669;28;20157;-80
2022/03/20 12:08:08;;;;;;;18.98;8.65;;;;;;;9.98;21.65;103062.22;5044681;28;20151;-79